^^
Station Historical Data
 
Daily Summary for September 24, 2017 Units:  Metric    English   Both
« Previous Day
Next Day »
Daily Weekly Monthly Yearly Custom
  Current: High: Low: Average:
Temperature: 15.5 °C 19.7 °C 12.6 °C 15.8 °C
Dew Point: 11.9 °C 13.7 °C 9.9 °C 11.9 °C
Humidity: 79 % 89 % 64 % 78 %
Wind Speed: 3.7 km/h 20.4 km/h 0 km/h 8.5 km/h
Wind Gust: 3.7 km/h 20.4 km/h - -
Wind:ESE - - SE
Pressure: 1018.8 hPa 1018.8 hPa 1017.2 hPa -
Precipitation: 0 mm      
Historical Graphs
 
 
Tabular Data for September 24, 2017
Time Temperature Dew Point Pressure Wind Wind Speed Wind Gust Humidity Rainfall Rate (Hourly) solar Conditions
00:00 15.7 °C 12.1 °C 1017.8 hPa SSE 14.8 km/h 14.8 km/h 79 % 0 mm 0.0 W/m2 SCT
00:05 15.7 °C 12.1 °C 1017.8 hPa South 7.4 km/h 7.4 km/h 79 % 0 mm 0.0 W/m2 SCT
00:10 15.7 °C 12.1 °C 1017.8 hPa SE 11.1 km/h 11.1 km/h 79 % 0 mm 0.0 W/m2 SCT
00:11 15.7 °C 12.1 °C 1018.2 hPa South 9.3 km/h 9.3 km/h 79 % 0 mm 0.0 W/m2 SCT
00:16 15.7 °C 11.8 °C 1017.8 hPa ESE 11.1 km/h 11.1 km/h 78 % 0 mm 0.0 W/m2 SCT
00:21 15.6 °C 11.8 °C 1017.8 hPa SE 11.3 km/h 11.3 km/h 78 % 0 mm 0.0 W/m2 SCT
00:26 15.6 °C 11.8 °C 1017.8 hPa South 5.6 km/h 5.6 km/h 78 % 0 mm 0.0 W/m2 SCT
00:31 15.6 °C 11.7 °C 1017.8 hPa SE 5.6 km/h 5.6 km/h 78 % 0 mm 0.0 W/m2 SCT
00:36 15.6 °C 11.7 °C 1017.8 hPa SSE 5.6 km/h 5.6 km/h 78 % 0 mm 0.0 W/m2 SCT
00:41 15.6 °C 11.7 °C 1017.8 hPa SSE 7.4 km/h 7.4 km/h 78 % 0 mm 0.0 W/m2 SCT
00:46 15.5 °C 11.9 °C 1017.8 hPa SSE 5.6 km/h 5.6 km/h 79 % 0 mm 0.0 W/m2 SCT
00:51 15.4 °C 11.8 °C 1017.8 hPa SSE 5.6 km/h 5.6 km/h 79 % 0 mm 0.0 W/m2 SCT
00:56 15.4 °C 11.8 °C 1017.8 hPa ESE 9.3 km/h 9.3 km/h 79 % 0 mm 0.0 W/m2 SCT
01:01 15.3 °C 11.9 °C 1017.8 hPa SSW 6.4 km/h 6.4 km/h 80 % 0 mm 0.0 W/m2 SCT
01:06 15.3 °C 11.8 °C 1017.8 hPa South 5.6 km/h 5.6 km/h 80 % 0 mm 0.0 W/m2 SCT
01:11 15.2 °C 11.8 °C 1017.8 hPa South 5.6 km/h 5.6 km/h 80 % 0 mm 0.0 W/m2 SCT
01:16 15.2 °C 11.7 °C 1017.8 hPa SSE 9.3 km/h 9.3 km/h 80 % 0 mm 0.0 W/m2 SCT
01:17 15.2 °C 11.7 °C 1017.8 hPa SSE 3.7 km/h 3.7 km/h 80 % 0 mm 0.0 W/m2 SCT
01:22 15.1 °C 11.6 °C 1017.8 hPa SE 7.4 km/h 7.4 km/h 80 % 0 mm 0.0 W/m2 SCT
01:27 15 °C 11.8 °C 1017.5 hPa SSE 9.3 km/h 9.3 km/h 81 % 0 mm 0.0 W/m2 SCT
01:32 14.9 °C 11.7 °C 1017.8 hPa South 9.3 km/h 9.3 km/h 81 % 0 mm 0.0 W/m2 SCT
01:37 14.9 °C 11.5 °C 1017.8 hPa South 11.1 km/h 11.1 km/h 80 % 0 mm 0.0 W/m2 SCT
01:42 14.9 °C 11.4 °C 1017.8 hPa SE 5.6 km/h 5.6 km/h 80 % 0 mm 0.0 W/m2 SCT
01:47 14.8 °C 11.6 °C 1017.8 hPa SSE 3.7 km/h 3.9 km/h 81 % 0 mm 0.0 W/m2 SCT
01:52 14.8 °C 11.6 °C 1017.8 hPa ESE 3.7 km/h 3.7 km/h 81 % 0 mm 0.0 W/m2 SCT
01:57 14.7 °C 11.5 °C 1017.5 hPa ESE 5.6 km/h 5.6 km/h 81 % 0 mm 0.0 W/m2 SCT
02:02 14.7 °C 11.4 °C 1017.5 hPa SE 7.4 km/h 7.4 km/h 81 % 0 mm 0.0 W/m2 SCT
02:07 14.6 °C 11.4 °C 1017.5 hPa SE 7.4 km/h 7.4 km/h 81 % 0 mm 0.0 W/m2 SCT
02:12 14.6 °C 11.3 °C 1017.5 hPa SE 5.6 km/h 5.6 km/h 81 % 0 mm 0.0 W/m2 SCT
02:17 14.5 °C 11.3 °C 1017.5 hPa ESE 5.6 km/h 5.6 km/h 81 % 0 mm 0.0 W/m2 SCT
02:22 14.4 °C 11.2 °C 1017.5 hPa SE 7.4 km/h 7.4 km/h 81 % 0 mm 0.0 W/m2 SCT
02:27 14.4 °C 11.2 °C 1017.5 hPa SSE 7.4 km/h 7.4 km/h 81 % 0 mm 0.0 W/m2 SCT
02:32 14.3 °C 11.1 °C 1017.5 hPa SSE 8 km/h 8 km/h 81 % 0 mm 0.0 W/m2 SCT
02:37 14.3 °C 11.1 °C 1017.5 hPa SE 11.1 km/h 11.1 km/h 81 % 0 mm 0.0 W/m2 SCT
02:42 14.3 °C 11.1 °C 1017.5 hPa SSE 5.6 km/h 5.6 km/h 81 % 0 mm 0.0 W/m2 SCT
02:47 14.3 °C 11.1 °C 1017.5 hPa South 7.4 km/h 7.4 km/h 81 % 0 mm 0.0 W/m2 SCT
02:52 14.3 °C 10.9 °C 1017.5 hPa SE 5.6 km/h 5.6 km/h 80 % 0 mm 0.0 W/m2 SCT
02:57 14.3 °C 10.9 °C 1017.5 hPa East 8 km/h 8 km/h 80 % 0 mm 0.0 W/m2 SCT
03:02 14.3 °C 10.9 °C 1017.5 hPa SE 5.6 km/h 5.6 km/h 80 % 0 mm 0.0 W/m2 SCT
03:07 14.2 °C 10.8 °C 1017.5 hPa SE 3.7 km/h   80 % 0 mm 0.0 W/m2 SCT
03:12 14.2 °C 10.8 °C 1017.5 hPa SE 3.7 km/h 3.7 km/h 80 % 0 mm 0.0 W/m2 SCT
03:17 14.2 °C 10.8 °C 1017.5 hPa SE 1.9 km/h 1.9 km/h 80 % 0 mm 0.0 W/m2 SCT
03:22 14.2 °C 10.8 °C 1017.5 hPa South 5.6 km/h 5.6 km/h 80 % 0 mm 0.0 W/m2 SCT
03:32 14.1 °C 10.7 °C 1017.5 hPa WSW 4.8 km/h 4.8 km/h 80 % 0 mm 0.0 W/m2 SCT
03:37 14 °C 10.6 °C 1017.5 hPa Calm     80 % 0 mm 0.0 W/m2 SCT
03:42 13.9 °C 10.7 °C 1017.5 hPa Calm   0.2 km/h 81 % 0 mm 0.0 W/m2 SCT
03:47 13.9 °C 10.7 °C 1017.5 hPa SSE 7.4 km/h 7.4 km/h 81 % 0 mm 0.0 W/m2 SCT
03:52 13.8 °C 10.6 °C 1017.5 hPa SSE 3.7 km/h 3.7 km/h 81 % 0 mm 0.0 W/m2 SCT
03:57 13.8 °C 10.6 °C 1017.5 hPa South 5.6 km/h 5.6 km/h 81 % 0 mm 0.0 W/m2 SCT
04:02 13.7 °C 10.5 °C 1017.5 hPa South 1.9 km/h 1.9 km/h 81 % 0 mm 0.0 W/m2 SCT
04:07 13.7 °C 10.4 °C 1017.5 hPa SSE 5.6 km/h 5.6 km/h 81 % 0 mm 0.0 W/m2 SCT
04:13 13.6 °C 10.6 °C 1017.8 hPa SE 5.6 km/h 5.6 km/h 82 % 0 mm 0.0 W/m2 SCT
04:18 13.6 °C 10.6 °C 1017.5 hPa SSE 1.9 km/h 1.9 km/h 82 % 0 mm 0.0 W/m2 SCT
04:21 13.6 °C 10.6 °C 1017.5 hPa SE 3.2 km/h 3.2 km/h 82 % 0 mm 0.0 W/m2 SCT
04:24 13.5 °C 10.5 °C 1017.5 hPa SE 1.9 km/h 1.9 km/h 82 % 0 mm 0.0 W/m2 SCT
04:26 13.4 °C 10.4 °C 1017.5 hPa SE 1.9 km/h 1.9 km/h 82 % 0 mm 0.0 W/m2 SCT
04:27 13.4 °C 10.4 °C 1017.5 hPa SE 1.9 km/h 1.9 km/h 82 % 0 mm 0.0 W/m2 SCT
04:32 13.4 °C 10.4 °C 1017.5 hPa ESE 1.9 km/h 1.9 km/h 82 % 0 mm 0.0 W/m2 SCT
04:37 13.3 °C 10.3 °C 1017.5 hPa SE 3.7 km/h 3.7 km/h 82 % 0 mm 0.0 W/m2 SCT
04:42 13.3 °C 10.3 °C 1017.5 hPa SE 3.7 km/h 3.7 km/h 82 % 0 mm 0.0 W/m2 SCT
04:47 13.2 °C 10.3 °C 1017.5 hPa SE 5.6 km/h 5.6 km/h 83 % 0 mm 0.0 W/m2 SCT
04:52 13.1 °C 10.3 °C 1017.5 hPa SE 5.6 km/h 5.6 km/h 83 % 0 mm 0.0 W/m2 SCT
04:57 13.1 °C 10.2 °C 1017.5 hPa SE 3.7 km/h 3.7 km/h 83 % 0 mm 0.0 W/m2 SCT
05:02 12.9 °C 10.1 °C 1017.2 hPa ESE 3.7 km/h 3.7 km/h 83 % 0 mm 0.0 W/m2 SCT
05:07 12.9 °C 10.1 °C 1017.5 hPa South 5.6 km/h 5.6 km/h 83 % 0 mm 0.0 W/m2 SCT
05:12 12.8 °C 10.2 °C 1017.2 hPa South 5.6 km/h 5.6 km/h 84 % 0 mm 0.0 W/m2 SCT
05:17 12.8 °C 10.2 °C 1017.2 hPa SSE 5.6 km/h 5.6 km/h 84 % 0 mm 0.0 W/m2 SCT
05:22 12.8 °C 10.2 °C 1017.5 hPa SE 7.4 km/h 7.4 km/h 84 % 0 mm 0.0 W/m2 SCT
05:27 12.8 °C 10.2 °C 1017.5 hPa SSE 5.6 km/h 5.6 km/h 84 % 0 mm 0.0 W/m2 SCT
05:32 12.8 °C 10.3 °C 1017.5 hPa SSE 5.6 km/h 5.6 km/h 85 % 0 mm 0.0 W/m2 SCT
05:37 12.8 °C 10.3 °C 1017.5 hPa SSE 5.6 km/h 5.6 km/h 85 % 0 mm 0.0 W/m2 SCT
05:42 12.7 °C 10.3 °C 1017.5 hPa South 9.3 km/h 9.3 km/h 85 % 0 mm 0.0 W/m2 SCT
05:47 12.7 °C 10.3 °C 1017.5 hPa South 7.4 km/h 7.4 km/h 85 % 0 mm 0.0 W/m2 SCT
05:52 12.7 °C 10.2 °C 1017.5 hPa South 8 km/h 8 km/h 85 % 0 mm 0.0 W/m2 SCT
05:57 12.7 °C 10.2 °C 1017.5 hPa SE 5.6 km/h 5.6 km/h 85 % 0 mm 0.0 W/m2 SCT
06:02 12.6 °C 10.2 °C 1017.5 hPa SSE 5.6 km/h 5.6 km/h 85 % 0 mm 0.0 W/m2 SCT
06:07 12.6 °C 10.2 °C 1017.5 hPa SSW 5.6 km/h 5.6 km/h 85 % 0 mm 0.0 W/m2 SCT
06:12 12.6 °C 9.9 °C 1017.5 hPa South 9.3 km/h 9.3 km/h 84 % 0 mm 0.0 W/m2 SCT
06:17 12.6 °C 9.9 °C 1017.5 hPa South 7.4 km/h 7.4 km/h 84 % 0 mm 0.0 W/m2 SCT
06:22 12.6 °C 9.9 °C 1017.5 hPa SSE 5.6 km/h 5.6 km/h 84 % 0 mm 0.0 W/m2 SCT
06:27 12.6 °C 9.9 °C 1017.5 hPa South 5.6 km/h 5.6 km/h 84 % 0 mm 0.0 W/m2 SCT
06:32 12.6 °C 9.9 °C 1017.5 hPa South 9.3 km/h 9.3 km/h 84 % 0 mm 0.0 W/m2 SCT
06:37 12.6 °C 10.2 °C 1017.5 hPa SE 5.6 km/h 5.6 km/h 85 % 0 mm 0.0 W/m2 SCT
06:42 12.7 °C 10.2 °C 1017.5 hPa SE 9.3 km/h 9.3 km/h 85 % 0 mm 0.0 W/m2 SCT
06:47 12.7 °C 10.3 °C 1017.5 hPa South 5.6 km/h 5.6 km/h 85 % 0 mm 0.0 W/m2 SCT
06:52 12.7 °C 10.3 °C 1017.5 hPa South 8 km/h 8 km/h 85 % 0 mm 0.0 W/m2 SCT
06:57 12.8 °C 10.3 °C 1017.8 hPa South 5.6 km/h 5.6 km/h 85 % 0 mm 0.0 W/m2 SCT
07:02 12.8 °C 10.5 °C 1017.8 hPa SSE 11.1 km/h 11.1 km/h 86 % 0 mm 0.0 W/m2 SCT
07:07 12.8 °C 10.5 °C 1017.8 hPa South 11.1 km/h 11.1 km/h 86 % 0 mm 0.0 W/m2 SCT
07:12 12.8 °C 10.5 °C 1017.8 hPa SE 5.6 km/h 5.6 km/h 86 % 0 mm 5.0 W/m2 SCT
07:17 12.8 °C 10.5 °C 1017.8 hPa SSE 5.6 km/h 5.6 km/h 86 % 0 mm 5.0 W/m2 SCT
07:22 12.7 °C 10.6 °C 1017.8 hPa SE 5.6 km/h 5.6 km/h 87 % 0 mm 7.0 W/m2 SCT
07:27 12.7 °C 10.6 °C 1017.8 hPa ESE 5.6 km/h 5.6 km/h 87 % 0 mm 11.0 W/m2 SCT
07:32 12.7 °C 10.6 °C 1017.8 hPa ESE 5.6 km/h 5.6 km/h 87 % 0 mm 19.0 W/m2 SCT
07:37 12.7 °C 10.6 °C 1017.8 hPa ESE 5.6 km/h 5.6 km/h 87 % 0 mm 26.0 W/m2 SCT
07:42 12.7 °C 10.6 °C 1017.8 hPa SE 5.6 km/h 5.6 km/h 87 % 0 mm 30.0 W/m2 SCT
07:47 12.7 °C 10.6 °C 1017.8 hPa SSW 3.7 km/h 3.7 km/h 87 % 0 mm 30.0 W/m2 SCT
07:52 12.6 °C 10.5 °C 1017.8 hPa SSE 5.6 km/h 5.6 km/h 87 % 0 mm 28.0 W/m2 SCT
07:57 12.6 °C 10.7 °C 1017.8 hPa SSE 5.6 km/h 5.6 km/h 88 % 0 mm 30.0 W/m2 SCT
08:02 12.7 °C 10.7 °C 1017.8 hPa SSW 7.4 km/h 7.4 km/h 88 % 0 mm 33.0 W/m2 SCT
08:07 12.6 °C 10.7 °C 1017.8 hPa South 3.7 km/h 3.7 km/h 88 % 0 mm 40.0 W/m2 SCT
08:12 12.6 °C 10.7 °C 1017.8 hPa SSE 9.3 km/h 9.3 km/h 88 % 0 mm 46.0 W/m2 SCT
08:17 12.7 °C 10.7 °C 1018.2 hPa South 5.6 km/h 5.6 km/h 88 % 0 mm 69.0 W/m2 SCT
08:22 12.7 °C 10.7 °C 1018.2 hPa SSE 9.3 km/h 9.3 km/h 88 % 0 mm 104.0 W/m2 SCT
08:27 12.8 °C 11 °C 1018.2 hPa South 14.8 km/h 14.8 km/h 89 % 0 mm 135.0 W/m2 SCT
08:32 12.9 °C 11.1 °C 1018.2 hPa ESE 9.3 km/h 9.3 km/h 89 % 0 mm 151.0 W/m2 SCT
08:37 13.1 °C 11.3 °C 1018.2 hPa SSE 11.1 km/h 11.1 km/h 89 % 0 mm 181.0 W/m2 SCT
08:42 13.3 °C 11.3 °C 1018.2 hPa SSE 5.6 km/h 5.6 km/h 88 % 0 mm 209.0 W/m2 SCT
08:47 13.5 °C 11.6 °C 1018.2 hPa SE 5.6 km/h 5.6 km/h 88 % 0 mm 202.0 W/m2 SCT
08:52 13.7 °C 11.8 °C 1018.2 hPa SE 5.6 km/h 5.6 km/h 88 % 0 mm 179.0 W/m2 SCT
08:57 13.8 °C 11.7 °C 1018.2 hPa SE 5.6 km/h 5.6 km/h 87 % 0 mm 120.0 W/m2 SCT
09:02 13.9 °C 11.8 °C 1018.5 hPa SE 5.6 km/h 5.6 km/h 87 % 0 mm 130.0 W/m2 SCT
09:07 14 °C 11.7 °C 1018.5 hPa SE 5.6 km/h 5.6 km/h 86 % 0 mm 135.0 W/m2 SCT
09:12 14.1 °C 11.7 °C 1018.5 hPa South 8 km/h 8 km/h 86 % 0 mm 144.0 W/m2 SCT
09:17 14.1 °C 11.7 °C 1018.5 hPa South 7.4 km/h 7.4 km/h 86 % 0 mm 155.0 W/m2 SCT
09:22 14.2 °C 11.8 °C 1018.5 hPa ESE 5.6 km/h 5.6 km/h 86 % 0 mm 163.0 W/m2 SCT
09:27 14.2 °C 11.9 °C 1018.5 hPa SE 5.6 km/h 5.6 km/h 86 % 0 mm 162.0 W/m2 SCT
09:32 14.3 °C 11.8 °C 1018.5 hPa South 9.3 km/h 9.3 km/h 85 % 0 mm 165.0 W/m2 SCT
09:37 14.3 °C 11.8 °C 1018.5 hPa South 11.1 km/h 11.1 km/h 85 % 0 mm 169.0 W/m2 SCT
09:42 14.4 °C 11.9 °C 1018.5 hPa SSW 18.5 km/h 18.5 km/h 85 % 0 mm 202.0 W/m2 SCT
09:47 14.5 °C 11.8 °C 1018.5 hPa SE 13 km/h 13 km/h 84 % 0 mm 153.0 W/m2 SCT
09:52 14.6 °C 11.9 °C 1018.5 hPa SE 13 km/h 13 km/h 84 % 0 mm 155.0 W/m2 SCT
09:57 14.6 °C 11.9 °C 1018.5 hPa ESE 7.4 km/h 7.4 km/h 84 % 0 mm 153.0 W/m2 SCT
10:02 14.7 °C 12 °C 1018.5 hPa South 9.3 km/h 9.3 km/h 84 % 0 mm 155.0 W/m2 SCT
10:07 14.7 °C 12.1 °C 1018.5 hPa South 14.8 km/h 14.8 km/h 84 % 0 mm 209.0 W/m2 SCT
10:12 14.8 °C 11.9 °C 1018.5 hPa SW 9.7 km/h 9.7 km/h 83 % 0 mm 199.0 W/m2 SCT
10:17 14.9 °C 12 °C 1018.8 hPa SE 16.7 km/h 16.7 km/h 83 % 0 mm 213.0 W/m2 SCT
10:22 15 °C 12.1 °C 1018.5 hPa WSW 11.1 km/h 11.1 km/h 83 % 0 mm 216.0 W/m2 SCT
10:27 15.1 °C 12.2 °C 1018.5 hPa South 11.3 km/h 11.3 km/h 83 % 0 mm 207.0 W/m2 SCT
10:32 15.2 °C 12.3 °C 1018.5 hPa ESE 6.4 km/h 6.4 km/h 83 % 0 mm 232.0 W/m2 SCT
10:37 15.3 °C 12.4 °C 1018.5 hPa South 16.1 km/h 16.1 km/h 83 % 0 mm 265.0 W/m2 SCT
10:42 15.5 °C 12.4 °C 1018.5 hPa ESE 9.3 km/h 9.3 km/h 82 % 0 mm 374.0 W/m2 SCT
10:47 15.7 °C 12.7 °C 1018.5 hPa East 11.1 km/h 11.1 km/h 82 % 0 mm 306.0 W/m2 SCT
10:52 15.9 °C 12.9 °C 1018.5 hPa SE 8 km/h 8 km/h 82 % 0 mm 285.0 W/m2 SCT
10:57 16.2 °C 12.9 °C 1018.5 hPa South 8 km/h 8 km/h 81 % 0 mm 346.0 W/m2 SCT
11:02 16.4 °C 13.2 °C 1018.5 hPa SSE 16.7 km/h 16.7 km/h 81 % 0 mm 420.0 W/m2 SCT
11:07 16.7 °C 13 °C 1018.5 hPa South 11.1 km/h 11.1 km/h 79 % 0 mm 388.0 W/m2 SCT
11:12 16.9 °C 13 °C 1018.5 hPa South 11.1 km/h 11.1 km/h 78 % 0 mm 302.0 W/m2 SCT
11:17 16.9 °C 12.9 °C 1018.5 hPa SE 13 km/h 13 km/h 77 % 0 mm 265.0 W/m2 SCT
11:22 17 °C 12.7 °C 1018.2 hPa South 14.8 km/h 14.8 km/h 76 % 0 mm 265.0 W/m2 SCT
11:27 17.1 °C 12.8 °C 1018.2 hPa SE 9.3 km/h 9.3 km/h 76 % 0 mm 255.0 W/m2 SCT
11:32 17.1 °C 12.8 °C 1018.2 hPa South 7.4 km/h 7.4 km/h 76 % 0 mm 237.0 W/m2 SCT
11:37 17.2 °C 12.9 °C 1018.2 hPa South 9.3 km/h 9.3 km/h 76 % 0 mm 257.0 W/m2 SCT
11:42 17.2 °C 12.9 °C 1018.2 hPa SE 9.3 km/h 9.3 km/h 76 % 0 mm 288.0 W/m2 SCT
11:47 17.3 °C 13.1 °C 1018.2 hPa SE 11.1 km/h 11.1 km/h 76 % 0 mm 313.0 W/m2 SCT
11:52 17.5 °C 13.2 °C 1018.2 hPa SSE 9.3 km/h 9.3 km/h 76 % 0 mm 380.0 W/m2 SCT
11:57 17.8 °C 13.5 °C 1018.2 hPa SE 9.3 km/h 9.3 km/h 76 % 0 mm 438.0 W/m2 SCT
12:02 18.1 °C 13.6 °C 1018.2 hPa East 14.8 km/h 14.8 km/h 75 % 0 mm 364.0 W/m2 SCT
12:07 18.2 °C 13.5 °C 1018.2 hPa SE 13 km/h 13 km/h 74 % 0 mm 608.0 W/m2 SCT
12:12 18.4 °C 13.4 °C 1018.2 hPa SE 11.1 km/h 11.1 km/h 73 % 0 mm 248.0 W/m2 SCT
12:17 18.4 °C 13.4 °C 1018.2 hPa SE 5.6 km/h 5.6 km/h 73 % 0 mm 404.0 W/m2 SCT
12:22 18.4 °C 13.5 °C 1018.2 hPa ESE 13 km/h 13 km/h 73 % 0 mm 392.0 W/m2 SCT
12:27 18.4 °C 13.5 °C 1017.8 hPa SE 11.1 km/h 11.1 km/h 73 % 0 mm 332.0 W/m2 SCT
12:32 18.6 °C 13.6 °C 1017.8 hPa ESE 8 km/h 8 km/h 73 % 0 mm 332.0 W/m2 SCT
12:37 18.7 °C 13.5 °C 1017.8 hPa SSW 13 km/h 13 km/h 72 % 0 mm 410.0 W/m2 SCT
12:42 18.8 °C 13.2 °C 1017.8 hPa SSE 11.1 km/h 11.1 km/h 70 % 0 mm 399.0 W/m2 SCT
12:47 19 °C 13.4 °C 1017.8 hPa ESE 14.8 km/h 14.8 km/h 70 % 0 mm 563.0 W/m2 SCT
12:52 19.3 °C 13.2 °C 1017.8 hPa South 14.8 km/h 14.8 km/h 68 % 0 mm 446.0 W/m2 SCT
12:57 19.5 °C 13.2 °C 1017.8 hPa South 16.7 km/h 16.7 km/h 67 % 0 mm 461.0 W/m2 SCT
13:02 19.6 °C 13.3 °C 1017.8 hPa SW 18.5 km/h 18.5 km/h 67 % 0 mm 406.0 W/m2 SCT
13:12 19.7 °C 13.1 °C 1017.8 hPa SSE 14.8 km/h 14.8 km/h 66 % 0 mm 399.0 W/m2 SCT
13:17 19.7 °C 13.2 °C 1017.8 hPa SSE 16.7 km/h 16.7 km/h 66 % 0 mm 378.0 W/m2 SCT
13:22 19.7 °C 13.2 °C 1017.8 hPa South 9.7 km/h 9.7 km/h 66 % 0 mm 360.0 W/m2 SCT
13:27 19.6 °C 13.1 °C 1017.8 hPa SSE 14.8 km/h 14.8 km/h 66 % 0 mm 287.0 W/m2 SCT
13:32 19.5 °C 13.2 °C 1017.8 hPa SE 14.8 km/h 14.8 km/h 67 % 0 mm 272.0 W/m2 SCT
13:37 19.4 °C 13.2 °C 1017.8 hPa SSE 16.7 km/h 16.7 km/h 67 % 0 mm 311.0 W/m2 SCT
13:42 19.4 °C 13.4 °C 1017.8 hPa ESE 11.3 km/h 11.3 km/h 68 % 0 mm 304.0 W/m2 SCT
13:47 19.4 °C 13.2 °C 1017.8 hPa SE 20.4 km/h 20.4 km/h 67 % 0 mm 288.0 W/m2 SCT
13:52 19.3 °C 13.1 °C 1017.8 hPa SE 16.7 km/h 16.7 km/h 67 % 0 mm 255.0 W/m2 SCT
13:57 19.2 °C 12.9 °C 1017.8 hPa SSE 11.1 km/h 11.1 km/h 67 % 0 mm 221.0 W/m2 SCT
14:02 19.2 °C 12.9 °C 1017.8 hPa South 14.8 km/h 14.8 km/h 67 % 0 mm 220.0 W/m2 SCT
14:07 19.1 °C 12.8 °C 1017.8 hPa South 9.3 km/h 9.3 km/h 67 % 0 mm 243.0 W/m2 SCT
14:12 19.2 °C 12.9 °C 1017.8 hPa ESE 18.5 km/h 18.5 km/h 67 % 0 mm 265.0 W/m2 SCT
14:17 19.1 °C 12.8 °C 1017.5 hPa SE 11.1 km/h 11.1 km/h 67 % 0 mm 274.0 W/m2 SCT
14:22 19.2 °C 12.9 °C 1017.5 hPa ESE 13 km/h 13 km/h 67 % 0 mm 287.0 W/m2 SCT
14:27 19.2 °C 12.7 °C 1017.8 hPa ESE 14.8 km/h 14.8 km/h 66 % 0 mm 243.0 W/m2 SCT
14:32 19.3 °C 12.8 °C 1017.5 hPa ESE 9.3 km/h 9.3 km/h 66 % 0 mm 257.0 W/m2 SCT
14:37 19.3 °C 12.8 °C 1017.5 hPa ESE 13 km/h 13 km/h 66 % 0 mm 287.0 W/m2 SCT
14:42 19.3 °C 12.8 °C 1017.5 hPa SSE 9.3 km/h 9.3 km/h 66 % 0 mm 287.0 W/m2 SCT
14:47 19.4 °C 12.9 °C 1017.5 hPa SE 11.1 km/h 11.1 km/h 66 % 0 mm 214.0 W/m2 SCT
14:52 19.4 °C 12.9 °C 1017.5 hPa South 5.6 km/h 5.6 km/h 66 % 0 mm 209.0 W/m2 SCT
14:57 19.4 °C 12.7 °C 1017.5 hPa South 16.7 km/h 16.7 km/h 65 % 0 mm 243.0 W/m2 SCT
15:02 19.4 °C 12.6 °C 1017.8 hPa SE 18.5 km/h 18.5 km/h 65 % 0 mm 248.0 W/m2 SCT
15:07 19.4 °C 12.6 °C 1017.8 hPa SSE 11.1 km/h 11.1 km/h 65 % 0 mm 232.0 W/m2 SCT
15:12 19.3 °C 12.3 °C 1017.8 hPa SSE 19.3 km/h 19.3 km/h 64 % 0 mm 200.0 W/m2 SCT
15:17 19.3 °C 12.6 °C 1017.5 hPa SE 13 km/h 13 km/h 65 % 0 mm 188.0 W/m2 SCT
15:22 19.2 °C 12.5 °C 1017.5 hPa ESE 14.8 km/h 14.8 km/h 65 % 0 mm 178.0 W/m2 SCT
15:27 19.2 °C 12.4 °C 1017.5 hPa SE 13 km/h 13 km/h 65 % 0 mm 172.0 W/m2 SCT
15:32 19.1 °C 12.4 °C 1017.5 hPa SSE 9.3 km/h 9.3 km/h 65 % 0 mm 156.0 W/m2 SCT
15:37 19.1 °C 12.3 °C 1017.5 hPa SSE 8 km/h 8 km/h 65 % 0 mm 141.0 W/m2 SCT
15:42 19 °C 12.5 °C 1017.5 hPa South 5.6 km/h 5.6 km/h 66 % 0 mm 125.0 W/m2 SCT
15:47 18.9 °C 12.4 °C 1017.5 hPa East 9.7 km/h 9.7 km/h 66 % 0 mm 116.0 W/m2 SCT
15:52 18.9 °C 12.4 °C 1017.5 hPa South 16.7 km/h 16.7 km/h 66 % 0 mm 109.0 W/m2 SCT
15:57 18.8 °C 12.3 °C 1017.5 hPa SSE 7.4 km/h 7.4 km/h 66 % 0 mm 114.0 W/m2 SCT
16:02 18.8 °C 12.3 °C 1017.5 hPa SSE 11.1 km/h 11.1 km/h 66 % 0 mm 127.0 W/m2 SCT
16:07 18.8 °C 12.6 °C 1017.5 hPa SSW 4.8 km/h 4.8 km/h 67 % 0 mm 134.0 W/m2 SCT
16:12 18.8 °C 12.5 °C 1017.5 hPa SE 13 km/h 13 km/h 67 % 0 mm 134.0 W/m2 SCT
16:17 18.8 °C 12.5 °C 1017.5 hPa SSE 5.6 km/h 5.6 km/h 67 % 0 mm 137.0 W/m2 SCT
16:22 18.8 °C 12.6 °C 1017.5 hPa SSE 11.3 km/h 11.3 km/h 67 % 0 mm 139.0 W/m2 SCT
16:27 18.8 °C 12.8 °C 1017.5 hPa ESE 7.4 km/h 7.4 km/h 68 % 0 mm 141.0 W/m2 SCT
16:32 18.8 °C 13.2 °C 1017.5 hPa SE 14.8 km/h 14.8 km/h 70 % 0 mm 139.0 W/m2 SCT
16:37 18.8 °C 13.4 °C 1017.5 hPa ESE 11.1 km/h 11.1 km/h 71 % 0 mm 137.0 W/m2 SCT
16:42 18.7 °C 13.6 °C 1017.5 hPa SE 14.8 km/h 14.8 km/h 72 % 0 mm 134.0 W/m2 SCT
16:47 18.6 °C 13.7 °C 1017.8 hPa ESE 11.1 km/h 11.1 km/h 73 % 0 mm 132.0 W/m2 SCT
16:52 18.5 °C 13.6 °C 1017.5 hPa ESE 14.8 km/h 14.8 km/h 73 % 0 mm 127.0 W/m2 SCT
16:57 18.4 °C 13.7 °C 1017.8 hPa SSE 11.1 km/h 11.1 km/h 74 % 0 mm 142.0 W/m2 SCT
17:02 18.3 °C 13.6 °C 1017.8 hPa ESE 11.1 km/h 11.1 km/h 74 % 0 mm 155.0 W/m2 SCT
17:07 18.2 °C 13.7 °C 1017.8 hPa East 14.8 km/h 14.8 km/h 75 % 0 mm 155.0 W/m2 SCT
17:12 18.1 °C 13.6 °C 1017.8 hPa SE 18.5 km/h 18.5 km/h 75 % 0 mm 127.0 W/m2 SCT
17:17 18 °C 13.5 °C 1017.8 hPa ESE 11.1 km/h 11.1 km/h 75 % 0 mm 116.0 W/m2 SCT
17:22 17.9 °C 13.4 °C 1017.8 hPa SSE 11.1 km/h 11.1 km/h 75 % 0 mm 109.0 W/m2 SCT
17:27 17.9 °C 13.4 °C 1017.8 hPa ESE 16.7 km/h 16.7 km/h 75 % 0 mm 93.0 W/m2 SCT
17:32 17.8 °C 13.6 °C 1017.8 hPa ESE 13 km/h 13 km/h 76 % 0 mm 76.0 W/m2 SCT
17:37 17.8 °C 13.5 °C 1017.8 hPa ESE 13 km/h 13 km/h 76 % 0 mm 67.0 W/m2 SCT
17:42 17.7 °C 13.4 °C 1017.8 hPa ESE 11.1 km/h 11.1 km/h 76 % 0 mm 51.0 W/m2 SCT
17:47 17.6 °C 13.3 °C 1017.8 hPa East 7.4 km/h 7.4 km/h 76 % 0 mm 33.0 W/m2 SCT
17:52 17.6 °C 13.5 °C 1017.8 hPa East 13 km/h 13 km/h 77 % 0 mm 28.0 W/m2 SCT
17:57 17.4 °C 13.4 °C 1017.8 hPa ESE 14.5 km/h 14.5 km/h 77 % 0 mm 26.0 W/m2 SCT
18:02 17.3 °C 13.3 °C 1017.8 hPa ESE 18.5 km/h 18.5 km/h 77 % 0 mm 25.0 W/m2 SCT
18:07 17.2 °C 13.1 °C 1017.8 hPa SE 14.8 km/h 14.8 km/h 77 % 0 mm 23.0 W/m2 SCT
18:12 17.1 °C 13.1 °C 1017.8 hPa East 13 km/h 13 km/h 77 % 0 mm 18.0 W/m2 SCT
18:17 17.1 °C 13 °C 1017.8 hPa ESE 11.1 km/h 11.1 km/h 77 % 0 mm 18.0 W/m2 SCT
18:22 17 °C 12.9 °C 1017.8 hPa ESE 9.7 km/h 9.7 km/h 77 % 0 mm 18.0 W/m2 SCT
18:27 16.9 °C 12.9 °C 1017.8 hPa ESE 13 km/h 13 km/h 77 % 0 mm 16.0 W/m2 SCT
18:32 16.8 °C 12.8 °C 1018.2 hPa SE 11.1 km/h 11.1 km/h 77 % 0 mm 11.0 W/m2 SCT
18:37 16.8 °C 12.8 °C 1018.2 hPa ESE 13 km/h 13 km/h 77 % 0 mm 7.0 W/m2 SCT
18:42 16.8 °C 12.7 °C 1018.2 hPa ENE 5.6 km/h 5.6 km/h 77 % 0 mm 5.0 W/m2 SCT
18:47 16.7 °C 12.7 °C 1018.2 hPa ESE 9.7 km/h 9.7 km/h 77 % 0 mm 0.0 W/m2 SCT
18:52 16.7 °C 12.7 °C 1018.2 hPa SSE 7.4 km/h 7.4 km/h 77 % 0 mm 0.0 W/m2 SCT
18:57 16.7 °C 12.6 °C 1018.2 hPa ESE 11.1 km/h 11.1 km/h 77 % 0 mm 0.0 W/m2 SCT
19:02 16.6 °C 12.6 °C 1018.2 hPa SE 9.3 km/h 9.3 km/h 77 % 0 mm 0.0 W/m2 SCT
19:07 16.6 °C 12.5 °C 1018.2 hPa ESE 5.6 km/h 5.6 km/h 77 % 0 mm 0.0 W/m2 SCT
19:12 16.6 °C 12.5 °C 1018.2 hPa ESE 5.6 km/h 5.6 km/h 77 % 0 mm 0.0 W/m2 SCT
19:17 16.6 °C 12.5 °C 1018.5 hPa SE 7.4 km/h 7.4 km/h 77 % 0 mm 0.0 W/m2 SCT
19:22 16.5 °C 12.4 °C 1018.5 hPa ESE 4.8 km/h 4.8 km/h 77 % 0 mm 0.0 W/m2 SCT
19:27 16.5 °C 12.4 °C 1018.5 hPa SE 3.7 km/h 3.7 km/h 77 % 0 mm 0.0 W/m2 SCT
19:32 16.4 °C 12.4 °C 1018.5 hPa ESE 3.7 km/h 3.7 km/h 77 % 0 mm 0.0 W/m2 SCT
19:37 16.4 °C 12.4 °C 1018.5 hPa ESE 7.4 km/h 7.4 km/h 77 % 0 mm 0.0 W/m2 SCT
19:42 16.4 °C 12.6 °C 1018.5 hPa East 7.4 km/h 7.4 km/h 78 % 0 mm 0.0 W/m2 SCT
19:47 16.3 °C 12.3 °C 1018.5 hPa SSE 11.1 km/h 11.1 km/h 77 % 0 mm 0.0 W/m2 SCT
19:52 16.3 °C 12.2 °C 1018.5 hPa ESE 5.6 km/h 5.6 km/h 77 % 0 mm 0.0 W/m2 SCT
19:57 16.2 °C 12.2 °C 1018.5 hPa East 3.7 km/h 3.7 km/h 77 % 0 mm 0.0 W/m2 SCT
20:02 16.2 °C 12.1 °C 1018.5 hPa ESE 5.6 km/h 5.6 km/h 77 % 0 mm 0.0 W/m2 SCT
20:07 16.1 °C 12.1 °C 1018.5 hPa ESE 5.6 km/h 5.6 km/h 77 % 0 mm 0.0 W/m2 SCT
20:12 16.1 °C 12 °C 1018.5 hPa ESE 3.7 km/h 3.7 km/h 77 % 0 mm 0.0 W/m2 SCT
20:17 16 °C 11.9 °C 1018.5 hPa ESE 9.3 km/h 9.3 km/h 77 % 0 mm 0.0 W/m2 SCT
20:22 15.9 °C 11.9 °C 1018.5 hPa SE 3.7 km/h 3.7 km/h 77 % 0 mm 0.0 W/m2 SCT
20:27 15.9 °C 11.9 °C 1018.5 hPa ESE 5.6 km/h 5.6 km/h 77 % 0 mm 0.0 W/m2 SCT
20:32 15.9 °C 11.9 °C 1018.5 hPa ESE 3.7 km/h 3.7 km/h 77 % 0 mm 0.0 W/m2 SCT
20:37 15.9 °C 11.9 °C 1018.5 hPa East 1.9 km/h 1.9 km/h 77 % 0 mm 0.0 W/m2 SCT
20:42 15.9 °C 11.9 °C 1018.5 hPa East 7.4 km/h 7.4 km/h 77 % 0 mm 0.0 W/m2 SCT
20:47 15.9 °C 11.9 °C 1018.5 hPa East 1.9 km/h   77 % 0 mm 0.0 W/m2 SCT
20:52 15.9 °C 11.9 °C 1018.5 hPa ENE 5.6 km/h 5.6 km/h 77 % 0 mm 0.0 W/m2 SCT
20:57 15.9 °C 11.9 °C 1018.5 hPa ENE 1.6 km/h 1.6 km/h 77 % 0 mm 0.0 W/m2 SCT
21:02 15.9 °C 11.8 °C 1018.5 hPa ENE 3.7 km/h 3.7 km/h 77 % 0 mm 0.0 W/m2 SCT
21:07 15.8 °C 11.8 °C 1018.5 hPa ESE 3.7 km/h 3.7 km/h 77 % 0 mm 0.0 W/m2 SCT
21:12 15.8 °C 11.8 °C 1018.5 hPa NE 3.7 km/h 3.7 km/h 77 % 0 mm 0.0 W/m2 SCT
21:17 15.8 °C 11.8 °C 1018.5 hPa ENE 5.6 km/h 5.6 km/h 77 % 0 mm 0.0 W/m2 SCT
21:22 15.8 °C 11.9 °C 1018.5 hPa NE 5.6 km/h 5.6 km/h 78 % 0 mm 0.0 W/m2 SCT
21:27 15.8 °C 11.9 °C 1018.5 hPa NE 3.7 km/h 3.7 km/h 78 % 0 mm 0.0 W/m2 SCT
21:32 15.7 °C 12.1 °C 1018.5 hPa ESE 5.6 km/h 5.6 km/h 79 % 0 mm 0.0 W/m2 SCT
21:37 15.7 °C 12.1 °C 1018.5 hPa ESE 3.7 km/h 3.7 km/h 79 % 0 mm 0.0 W/m2 SCT
21:42 15.7 °C 12.1 °C 1018.5 hPa East 1.9 km/h 1.9 km/h 79 % 0 mm 0.0 W/m2 SCT
21:47 15.6 °C 12 °C 1018.5 hPa East 1.9 km/h   79 % 0 mm 0.0 W/m2 SCT
21:52 15.6 °C 11.9 °C 1018.8 hPa SE 3.7 km/h 3.7 km/h 79 % 0 mm 0.0 W/m2 SCT
21:57 15.6 °C 11.9 °C 1018.5 hPa ESE 3.7 km/h 3.7 km/h 79 % 0 mm 0.0 W/m2 SCT
22:02 15.5 °C 11.9 °C 1018.8 hPa ESE 3.7 km/h 3.7 km/h 79 % 0 mm 0.0 W/m2 SCT
Billingham Weather Station
Compliments of Weather Underground - 3.5 mb